sensor_id;sensor_type;location;lat;lon;timestamp;P1;durP1;ratioP1;P2;durP2;ratioP2
5493;SDS011;2769;49.864;8.656;2023-03-15T00:00:48;9.20;;;2.53;;
5493;SDS011;2769;49.864;8.656;2023-03-15T00:03:16;5.70;;;2.40;;
5493;SDS011;2769;49.864;8.656;2023-03-15T00:05:44;6.60;;;2.77;;
5493;SDS011;2769;49.864;8.656;2023-03-15T00:08:13;9.07;;;2.70;;
5493;SDS011;2769;49.864;8.656;2023-03-15T00:10:43;9.43;;;2.77;;
5493;SDS011;2769;49.864;8.656;2023-03-15T00:13:14;10.80;;;2.37;;
5493;SDS011;2769;49.864;8.656;2023-03-15T00:15:45;8.87;;;2.53;;
5493;SDS011;2769;49.864;8.656;2023-03-15T00:18:14;11.77;;;2.97;;
5493;SDS011;2769;49.864;8.656;2023-03-15T00:20:43;7.50;;;2.67;;
5493;SDS011;2769;49.864;8.656;2023-03-15T00:23:12;8.93;;;2.30;;
5493;SDS011;2769;49.864;8.656;2023-03-15T00:25:42;6.43;;;2.20;;
5493;SDS011;2769;49.864;8.656;2023-03-15T00:28:10;7.33;;;2.70;;
5493;SDS011;2769;49.864;8.656;2023-03-15T00:30:40;9.53;;;2.23;;
5493;SDS011;2769;49.864;8.656;2023-03-15T00:33:12;8.10;;;3.23;;
5493;SDS011;2769;49.864;8.656;2023-03-15T00:35:41;12.60;;;2.80;;
5493;SDS011;2769;49.864;8.656;2023-03-15T00:38:10;5.90;;;1.80;;
5493;SDS011;2769;49.864;8.656;2023-03-15T00:40:40;7.60;;;3.80;;
5493;SDS011;2769;49.864;8.656;2023-03-15T00:43:08;8.13;;;2.60;;
5493;SDS011;2769;49.864;8.656;2023-03-15T00:45:37;6.50;;;2.43;;
5493;SDS011;2769;49.864;8.656;2023-03-15T00:48:07;4.40;;;2.17;;
5493;SDS011;2769;49.864;8.656;2023-03-15T00:50:35;5.90;;;2.20;;
5493;SDS011;2769;49.864;8.656;2023-03-15T00:53:03;14.73;;;2.33;;
5493;SDS011;2769;49.864;8.656;2023-03-15T00:55:31;9.03;;;2.70;;
5493;SDS011;2769;49.864;8.656;2023-03-15T00:57:59;8.13;;;2.23;;
5493;SDS011;2769;49.864;8.656;2023-03-15T01:00:29;7.20;;;1.90;;
5493;SDS011;2769;49.864;8.656;2023-03-15T01:02:57;9.53;;;2.23;;
5493;SDS011;2769;49.864;8.656;2023-03-15T01:05:27;6.23;;;1.70;;
5493;SDS011;2769;49.864;8.656;2023-03-15T01:07:55;7.53;;;2.13;;
5493;SDS011;2769;49.864;8.656;2023-03-15T01:10:23;4.83;;;2.30;;
5493;SDS011;2769;49.864;8.656;2023-03-15T01:12:51;7.13;;;2.40;;
5493;SDS011;2769;49.864;8.656;2023-03-15T01:15:19;4.40;;;2.07;;
5493;SDS011;2769;49.864;8.656;2023-03-15T01:17:47;6.37;;;2.13;;
5493;SDS011;2769;49.864;8.656;2023-03-15T01:20:16;8.30;;;2.40;;
5493;SDS011;2769;49.864;8.656;2023-03-15T01:22:45;4.93;;;1.90;;
5493;SDS011;2769;49.864;8.656;2023-03-15T01:25:13;6.67;;;1.70;;
5493;SDS011;2769;49.864;8.656;2023-03-15T01:27:42;3.57;;;2.00;;
5493;SDS011;2769;49.864;8.656;2023-03-15T01:30:11;2.93;;;1.57;;
5493;SDS011;2769;49.864;8.656;2023-03-15T01:32:39;4.40;;;2.10;;
5493;SDS011;2769;49.864;8.656;2023-03-15T01:35:07;6.60;;;2.30;;
5493;SDS011;2769;49.864;8.656;2023-03-15T01:37:35;2.90;;;1.80;;
5493;SDS011;2769;49.864;8.656;2023-03-15T01:40:06;4.83;;;2.20;;
5493;SDS011;2769;49.864;8.656;2023-03-15T01:42:49;9.70;;;2.07;;
5493;SDS011;2769;49.864;8.656;2023-03-15T01:48:23;3.70;;;2.10;;
5493;SDS011;2769;49.864;8.656;2023-03-15T01:50:52;3.30;;;2.00;;
5493;SDS011;2769;49.864;8.656;2023-03-15T01:53:21;3.27;;;1.47;;
5493;SDS011;2769;49.864;8.656;2023-03-15T01:55:51;2.90;;;1.67;;
5493;SDS011;2769;49.864;8.656;2023-03-15T01:58:26;6.90;;;2.20;;
5493;SDS011;2769;49.864;8.656;2023-03-15T02:00:55;4.90;;;2.33;;
5493;SDS011;2769;49.864;8.656;2023-03-15T02:03:24;8.90;;;2.10;;
5493;SDS011;2769;49.864;8.656;2023-03-15T02:05:54;9.43;;;2.50;;
5493;SDS011;2769;49.864;8.656;2023-03-15T02:08:40;9.30;;;3.13;;
5493;SDS011;2769;49.864;8.656;2023-03-15T02:11:11;5.67;;;2.43;;
5493;SDS011;2769;49.864;8.656;2023-03-15T02:13:41;4.20;;;2.60;;
5493;SDS011;2769;49.864;8.656;2023-03-15T02:16:09;5.07;;;2.33;;
5493;SDS011;2769;49.864;8.656;2023-03-15T02:18:46;4.43;;;2.37;;
5493;SDS011;2769;49.864;8.656;2023-03-15T02:21:17;5.47;;;2.40;;
5493;SDS011;2769;49.864;8.656;2023-03-15T02:23:54;11.13;;;2.57;;
5493;SDS011;2769;49.864;8.656;2023-03-15T02:26:31;4.20;;;2.30;;
5493;SDS011;2769;49.864;8.656;2023-03-15T02:29:03;5.90;;;1.83;;
5493;SDS011;2769;49.864;8.656;2023-03-15T02:31:31;7.33;;;2.60;;
5493;SDS011;2769;49.864;8.656;2023-03-15T02:34:03;5.90;;;2.53;;
5493;SDS011;2769;49.864;8.656;2023-03-15T02:36:32;2.30;;;1.90;;
5493;SDS011;2769;49.864;8.656;2023-03-15T02:39:01;8.70;;;2.20;;
5493;SDS011;2769;49.864;8.656;2023-03-15T02:41:40;6.40;;;2.00;;
5493;SDS011;2769;49.864;8.656;2023-03-15T02:44:11;5.37;;;2.20;;
5493;SDS011;2769;49.864;8.656;2023-03-15T02:46:41;6.87;;;2.33;;
5493;SDS011;2769;49.864;8.656;2023-03-15T02:49:09;9.07;;;2.40;;
5493;SDS011;2769;49.864;8.656;2023-03-15T02:51:38;9.50;;;2.10;;
5493;SDS011;2769;49.864;8.656;2023-03-15T02:54:06;5.93;;;1.80;;
5493;SDS011;2769;49.864;8.656;2023-03-15T02:56:34;4.73;;;2.10;;
5493;SDS011;2769;49.864;8.656;2023-03-15T02:59:02;9.33;;;2.70;;
5493;SDS011;2769;49.864;8.656;2023-03-15T03:01:31;8.40;;;2.53;;
5493;SDS011;2769;49.864;8.656;2023-03-15T03:04:02;2.83;;;1.80;;
5493;SDS011;2769;49.864;8.656;2023-03-15T03:06:30;7.50;;;1.83;;
5493;SDS011;2769;49.864;8.656;2023-03-15T03:09:00;14.90;;;2.67;;
5493;SDS011;2769;49.864;8.656;2023-03-15T03:11:30;5.60;;;2.33;;
5493;SDS011;2769;49.864;8.656;2023-03-15T03:13:58;5.77;;;2.07;;
5493;SDS011;2769;49.864;8.656;2023-03-15T03:16:26;5.53;;;2.30;;
5493;SDS011;2769;49.864;8.656;2023-03-15T03:18:55;3.37;;;2.30;;
5493;SDS011;2769;49.864;8.656;2023-03-15T03:21:23;2.97;;;1.80;;
5493;SDS011;2769;49.864;8.656;2023-03-15T03:23:51;9.73;;;2.60;;
5493;SDS011;2769;49.864;8.656;2023-03-15T03:26:20;2.63;;;1.87;;
5493;SDS011;2769;49.864;8.656;2023-03-15T03:28:53;6.27;;;2.57;;
5493;SDS011;2769;49.864;8.656;2023-03-15T03:31:23;3.73;;;2.13;;
5493;SDS011;2769;49.864;8.656;2023-03-15T03:33:55;9.33;;;3.00;;
5493;SDS011;2769;49.864;8.656;2023-03-15T03:36:24;4.80;;;2.00;;
5493;SDS011;2769;49.864;8.656;2023-03-15T03:38:52;8.43;;;2.63;;
5493;SDS011;2769;49.864;8.656;2023-03-15T03:41:20;8.60;;;2.87;;
5493;SDS011;2769;49.864;8.656;2023-03-15T03:43:48;11.70;;;2.63;;
5493;SDS011;2769;49.864;8.656;2023-03-15T03:46:18;4.60;;;2.60;;
5493;SDS011;2769;49.864;8.656;2023-03-15T03:48:50;8.10;;;2.23;;
5493;SDS011;2769;49.864;8.656;2023-03-15T03:51:19;8.10;;;2.53;;
5493;SDS011;2769;49.864;8.656;2023-03-15T03:53:47;6.00;;;2.67;;
5493;SDS011;2769;49.864;8.656;2023-03-15T03:56:15;7.20;;;2.97;;
5493;SDS011;2769;49.864;8.656;2023-03-15T03:58:43;5.00;;;2.40;;
5493;SDS011;2769;49.864;8.656;2023-03-15T04:01:17;7.20;;;2.40;;
5493;SDS011;2769;49.864;8.656;2023-03-15T04:03:50;4.33;;;2.80;;
5493;SDS011;2769;49.864;8.656;2023-03-15T04:06:21;6.33;;;2.23;;
5493;SDS011;2769;49.864;8.656;2023-03-15T04:08:49;3.13;;;2.10;;
5493;SDS011;2769;49.864;8.656;2023-03-15T04:11:26;2.67;;;2.47;;
5493;SDS011;2769;49.864;8.656;2023-03-15T04:13:58;5.00;;;2.70;;
5493;SDS011;2769;49.864;8.656;2023-03-15T04:16:26;7.63;;;2.73;;
5493;SDS011;2769;49.864;8.656;2023-03-15T04:19:04;5.83;;;2.47;;
5493;SDS011;2769;49.864;8.656;2023-03-15T04:21:35;8.43;;;2.53;;
5493;SDS011;2769;49.864;8.656;2023-03-15T04:24:17;3.50;;;2.27;;
5493;SDS011;2769;49.864;8.656;2023-03-15T04:27:03;3.93;;;2.40;;
5493;SDS011;2769;49.864;8.656;2023-03-15T04:29:52;5.53;;;2.63;;
5493;SDS011;2769;49.864;8.656;2023-03-15T04:32:38;4.13;;;2.20;;
5493;SDS011;2769;49.864;8.656;2023-03-15T04:35:29;3.80;;;2.43;;
5493;SDS011;2769;49.864;8.656;2023-03-15T04:38:10;2.53;;;2.33;;
5493;SDS011;2769;49.864;8.656;2023-03-15T04:40:58;2.50;;;2.23;;
5493;SDS011;2769;49.864;8.656;2023-03-15T04:43:36;4.03;;;2.40;;
5493;SDS011;2769;49.864;8.656;2023-03-15T04:46:22;5.80;;;2.63;;
5493;SDS011;2769;49.864;8.656;2023-03-15T04:49:17;2.60;;;2.40;;
5493;SDS011;2769;49.864;8.656;2023-03-15T04:52:09;3.80;;;2.37;;
5493;SDS011;2769;49.864;8.656;2023-03-15T04:55:04;2.60;;;2.10;;
5493;SDS011;2769;49.864;8.656;2023-03-15T04:57:45;4.73;;;2.50;;
5493;SDS011;2769;49.864;8.656;2023-03-15T05:00:31;4.43;;;2.33;;
5493;SDS011;2769;49.864;8.656;2023-03-15T05:03:09;8.03;;;2.70;;
5493;SDS011;2769;49.864;8.656;2023-03-15T05:06:00;11.07;;;2.67;;
5493;SDS011;2769;49.864;8.656;2023-03-15T05:08:56;7.40;;;2.80;;
5493;SDS011;2769;49.864;8.656;2023-03-15T05:11:35;6.73;;;2.50;;
5493;SDS011;2769;49.864;8.656;2023-03-15T05:14:29;4.13;;;2.57;;
5493;SDS011;2769;49.864;8.656;2023-03-15T05:17:08;22.50;;;2.20;;
5493;SDS011;2769;49.864;8.656;2023-03-15T05:19:46;7.40;;;2.80;;
5493;SDS011;2769;49.864;8.656;2023-03-15T05:22:31;3.10;;;2.47;;
5493;SDS011;2769;49.864;8.656;2023-03-15T05:25:22;3.67;;;2.37;;
5493;SDS011;2769;49.864;8.656;2023-03-15T05:28:12;7.53;;;2.77;;
5493;SDS011;2769;49.864;8.656;2023-03-15T05:30:55;7.43;;;2.43;;
5493;SDS011;2769;49.864;8.656;2023-03-15T05:33:43;5.70;;;2.30;;
5493;SDS011;2769;49.864;8.656;2023-03-15T05:36:30;8.00;;;2.83;;
5493;SDS011;2769;49.864;8.656;2023-03-15T05:39:37;6.77;;;2.03;;
5493;SDS011;2769;49.864;8.656;2023-03-15T05:42:12;5.20;;;2.80;;
5493;SDS011;2769;49.864;8.656;2023-03-15T05:45:00;6.17;;;2.90;;
5493;SDS011;2769;49.864;8.656;2023-03-15T05:47:44;5.47;;;2.20;;
5493;SDS011;2769;49.864;8.656;2023-03-15T05:50:30;12.97;;;3.27;;
5493;SDS011;2769;49.864;8.656;2023-03-15T05:53:19;10.50;;;3.07;;
5493;SDS011;2769;49.864;8.656;2023-03-15T05:56:07;10.87;;;2.90;;
5493;SDS011;2769;49.864;8.656;2023-03-15T05:59:04;10.20;;;2.83;;
5493;SDS011;2769;49.864;8.656;2023-03-15T06:02:06;4.70;;;3.07;;
5493;SDS011;2769;49.864;8.656;2023-03-15T06:04:43;7.90;;;2.97;;
5493;SDS011;2769;49.864;8.656;2023-03-15T06:07:15;10.47;;;2.90;;
5493;SDS011;2769;49.864;8.656;2023-03-15T06:09:44;6.30;;;2.90;;
5493;SDS011;2769;49.864;8.656;2023-03-15T06:12:12;5.50;;;3.30;;
5493;SDS011;2769;49.864;8.656;2023-03-15T06:14:40;5.87;;;2.30;;
5493;SDS011;2769;49.864;8.656;2023-03-15T06:17:11;4.77;;;2.90;;
5493;SDS011;2769;49.864;8.656;2023-03-15T06:19:42;6.53;;;2.83;;
5493;SDS011;2769;49.864;8.656;2023-03-15T06:22:09;8.47;;;3.03;;
5493;SDS011;2769;49.864;8.656;2023-03-15T06:24:48;6.80;;;3.33;;
5493;SDS011;2769;49.864;8.656;2023-03-15T06:27:17;8.80;;;3.30;;
5493;SDS011;2769;49.864;8.656;2023-03-15T06:29:48;4.43;;;3.20;;
5493;SDS011;2769;49.864;8.656;2023-03-15T06:32:21;8.90;;;3.50;;
5493;SDS011;2769;49.864;8.656;2023-03-15T06:34:49;11.10;;;3.70;;
5493;SDS011;2769;49.864;8.656;2023-03-15T06:37:18;4.27;;;2.90;;
5493;SDS011;2769;49.864;8.656;2023-03-15T06:40:01;10.20;;;3.23;;
5493;SDS011;2769;49.864;8.656;2023-03-15T06:42:31;9.93;;;3.97;;
5493;SDS011;2769;49.864;8.656;2023-03-15T06:44:59;14.97;;;3.87;;
5493;SDS011;2769;49.864;8.656;2023-03-15T06:47:28;4.70;;;3.50;;
5493;SDS011;2769;49.864;8.656;2023-03-15T06:49:57;3.33;;;3.03;;
5493;SDS011;2769;49.864;8.656;2023-03-15T06:52:25;11.73;;;5.13;;
5493;SDS011;2769;49.864;8.656;2023-03-15T06:54:54;11.30;;;4.87;;
5493;SDS011;2769;49.864;8.656;2023-03-15T06:57:22;10.00;;;4.57;;
5493;SDS011;2769;49.864;8.656;2023-03-15T06:59:50;8.60;;;4.20;;
5493;SDS011;2769;49.864;8.656;2023-03-15T07:02:19;4.90;;;3.20;;
5493;SDS011;2769;49.864;8.656;2023-03-15T07:04:50;10.23;;;4.90;;
5493;SDS011;2769;49.864;8.656;2023-03-15T07:07:18;10.50;;;4.17;;
5493;SDS011;2769;49.864;8.656;2023-03-15T07:09:46;11.50;;;3.77;;
5493;SDS011;2769;49.864;8.656;2023-03-15T07:12:14;5.57;;;3.80;;
5493;SDS011;2769;49.864;8.656;2023-03-15T07:14:42;10.23;;;3.20;;
5493;SDS011;2769;49.864;8.656;2023-03-15T07:17:12;10.17;;;4.80;;
5493;SDS011;2769;49.864;8.656;2023-03-15T07:19:39;12.17;;;4.53;;
5493;SDS011;2769;49.864;8.656;2023-03-15T07:22:23;8.30;;;4.67;;
5493;SDS011;2769;49.864;8.656;2023-03-15T07:24:51;7.90;;;4.73;;
5493;SDS011;2769;49.864;8.656;2023-03-15T07:27:19;6.70;;;4.70;;
5493;SDS011;2769;49.864;8.656;2023-03-15T07:29:47;8.20;;;4.93;;
5493;SDS011;2769;49.864;8.656;2023-03-15T07:32:15;9.97;;;5.40;;
5493;SDS011;2769;49.864;8.656;2023-03-15T07:34:43;8.57;;;4.53;;
5493;SDS011;2769;49.864;8.656;2023-03-15T07:37:11;12.60;;;5.10;;
5493;SDS011;2769;49.864;8.656;2023-03-15T07:39:41;12.80;;;4.90;;
5493;SDS011;2769;49.864;8.656;2023-03-15T07:42:09;10.13;;;6.10;;
5493;SDS011;2769;49.864;8.656;2023-03-15T07:44:39;15.10;;;5.67;;
5493;SDS011;2769;49.864;8.656;2023-03-15T07:47:07;12.20;;;5.37;;
5493;SDS011;2769;49.864;8.656;2023-03-15T07:49:35;14.13;;;5.53;;
5493;SDS011;2769;49.864;8.656;2023-03-15T07:52:03;11.43;;;5.10;;
5493;SDS011;2769;49.864;8.656;2023-03-15T07:54:31;8.60;;;5.30;;
5493;SDS011;2769;49.864;8.656;2023-03-15T07:57:01;11.10;;;5.60;;
5493;SDS011;2769;49.864;8.656;2023-03-15T07:59:29;8.77;;;5.03;;
5493;SDS011;2769;49.864;8.656;2023-03-15T08:01:57;10.87;;;5.40;;
5493;SDS011;2769;49.864;8.656;2023-03-15T08:04:28;10.33;;;5.70;;
5493;SDS011;2769;49.864;8.656;2023-03-15T08:06:56;8.50;;;5.50;;
5493;SDS011;2769;49.864;8.656;2023-03-15T08:09:24;11.30;;;6.20;;
5493;SDS011;2769;49.864;8.656;2023-03-15T08:11:52;7.70;;;4.83;;
5493;SDS011;2769;49.864;8.656;2023-03-15T08:14:21;10.00;;;5.27;;
5493;SDS011;2769;49.864;8.656;2023-03-15T08:16:50;14.50;;;5.57;;
5493;SDS011;2769;49.864;8.656;2023-03-15T08:19:18;7.80;;;5.47;;
5493;SDS011;2769;49.864;8.656;2023-03-15T08:21:47;12.40;;;5.33;;
5493;SDS011;2769;49.864;8.656;2023-03-15T08:24:15;10.83;;;5.50;;
5493;SDS011;2769;49.864;8.656;2023-03-15T08:26:43;10.33;;;5.77;;
5493;SDS011;2769;49.864;8.656;2023-03-15T08:29:11;9.40;;;5.77;;
5493;SDS011;2769;49.864;8.656;2023-03-15T08:31:41;17.00;;;6.33;;
5493;SDS011;2769;49.864;8.656;2023-03-15T08:34:09;13.50;;;5.97;;
5493;SDS011;2769;49.864;8.656;2023-03-15T08:36:37;9.27;;;6.30;;
5493;SDS011;2769;49.864;8.656;2023-03-15T08:39:05;14.63;;;5.57;;
5493;SDS011;2769;49.864;8.656;2023-03-15T08:41:33;14.70;;;5.80;;
5493;SDS011;2769;49.864;8.656;2023-03-15T08:44:01;10.83;;;5.60;;
5493;SDS011;2769;49.864;8.656;2023-03-15T08:46:29;11.30;;;5.10;;
5493;SDS011;2769;49.864;8.656;2023-03-15T08:49:00;10.37;;;6.13;;
5493;SDS011;2769;49.864;8.656;2023-03-15T08:51:28;13.63;;;5.93;;
5493;SDS011;2769;49.864;8.656;2023-03-15T08:53:56;13.73;;;6.30;;
5493;SDS011;2769;49.864;8.656;2023-03-15T08:56:24;16.17;;;7.00;;
5493;SDS011;2769;49.864;8.656;2023-03-15T08:58:52;11.40;;;7.40;;
5493;SDS011;2769;49.864;8.656;2023-03-15T09:01:21;10.77;;;6.50;;
5493;SDS011;2769;49.864;8.656;2023-03-15T09:03:49;11.80;;;6.33;;
5493;SDS011;2769;49.864;8.656;2023-03-15T09:06:18;14.73;;;6.40;;
5493;SDS011;2769;49.864;8.656;2023-03-15T09:08:46;16.47;;;6.80;;
5493;SDS011;2769;49.864;8.656;2023-03-15T09:11:14;8.57;;;6.30;;
5493;SDS011;2769;49.864;8.656;2023-03-15T09:13:42;11.63;;;7.33;;
5493;SDS011;2769;49.864;8.656;2023-03-15T09:16:10;12.00;;;6.20;;
5493;SDS011;2769;49.864;8.656;2023-03-15T09:18:38;11.43;;;6.17;;
5493;SDS011;2769;49.864;8.656;2023-03-15T09:21:09;13.70;;;5.93;;
5493;SDS011;2769;49.864;8.656;2023-03-15T09:23:39;12.63;;;7.43;;
5493;SDS011;2769;49.864;8.656;2023-03-15T09:26:07;13.93;;;6.67;;
5493;SDS011;2769;49.864;8.656;2023-03-15T09:28:34;14.40;;;6.80;;
5493;SDS011;2769;49.864;8.656;2023-03-15T09:31:03;16.43;;;7.30;;
5493;SDS011;2769;49.864;8.656;2023-03-15T09:33:32;17.00;;;6.93;;
5493;SDS011;2769;49.864;8.656;2023-03-15T09:36:00;14.80;;;7.57;;
5493;SDS011;2769;49.864;8.656;2023-03-15T09:38:28;15.80;;;7.97;;
5493;SDS011;2769;49.864;8.656;2023-03-15T09:40:58;14.40;;;7.93;;
5493;SDS011;2769;49.864;8.656;2023-03-15T09:43:30;13.50;;;7.60;;
5493;SDS011;2769;49.864;8.656;2023-03-15T09:46:09;17.43;;;7.90;;
5493;SDS011;2769;49.864;8.656;2023-03-15T09:48:47;16.30;;;7.83;;
5493;SDS011;2769;49.864;8.656;2023-03-15T09:51:19;10.00;;;7.57;;
5493;SDS011;2769;49.864;8.656;2023-03-15T09:53:54;9.63;;;7.80;;
5493;SDS011;2769;49.864;8.656;2023-03-15T09:56:26;10.93;;;8.00;;
5493;SDS011;2769;49.864;8.656;2023-03-15T09:58:55;21.30;;;8.37;;
5493;SDS011;2769;49.864;8.656;2023-03-15T10:01:26;14.60;;;7.90;;
5493;SDS011;2769;49.864;8.656;2023-03-15T10:03:56;15.27;;;8.30;;
5493;SDS011;2769;49.864;8.656;2023-03-15T10:06:25;14.07;;;8.20;;
5493;SDS011;2769;49.864;8.656;2023-03-15T10:09:05;16.13;;;8.67;;
5493;SDS011;2769;49.864;8.656;2023-03-15T10:11:39;12.50;;;8.40;;
5493;SDS011;2769;49.864;8.656;2023-03-15T10:14:16;11.50;;;8.90;;
5493;SDS011;2769;49.864;8.656;2023-03-15T10:16:49;16.40;;;8.97;;
5493;SDS011;2769;49.864;8.656;2023-03-15T10:19:21;14.37;;;8.50;;
5493;SDS011;2769;49.864;8.656;2023-03-15T10:21:53;18.33;;;9.20;;
5493;SDS011;2769;49.864;8.656;2023-03-15T10:24:25;10.77;;;7.60;;
5493;SDS011;2769;49.864;8.656;2023-03-15T10:27:01;14.00;;;6.97;;
5493;SDS011;2769;49.864;8.656;2023-03-15T10:29:36;12.73;;;7.83;;
5493;SDS011;2769;49.864;8.656;2023-03-15T10:32:04;11.50;;;6.97;;
5493;SDS011;2769;49.864;8.656;2023-03-15T10:34:33;11.97;;;6.50;;
5493;SDS011;2769;49.864;8.656;2023-03-15T10:37:01;8.70;;;6.63;;
5493;SDS011;2769;49.864;8.656;2023-03-15T10:39:31;9.53;;;5.83;;
5493;SDS011;2769;49.864;8.656;2023-03-15T10:42:00;9.40;;;6.23;;
5493;SDS011;2769;49.864;8.656;2023-03-15T10:44:29;11.90;;;6.40;;
5493;SDS011;2769;49.864;8.656;2023-03-15T10:47:03;9.93;;;6.30;;
5493;SDS011;2769;49.864;8.656;2023-03-15T10:49:48;11.63;;;6.23;;
5493;SDS011;2769;49.864;8.656;2023-03-15T10:52:27;9.00;;;4.90;;
5493;SDS011;2769;49.864;8.656;2023-03-15T10:55:01;8.90;;;5.43;;
5493;SDS011;2769;49.864;8.656;2023-03-15T10:57:38;7.57;;;5.20;;
5493;SDS011;2769;49.864;8.656;2023-03-15T11:00:17;6.70;;;5.00;;
5493;SDS011;2769;49.864;8.656;2023-03-15T11:02:51;8.57;;;4.70;;
5493;SDS011;2769;49.864;8.656;2023-03-15T11:05:29;5.40;;;4.80;;
5493;SDS011;2769;49.864;8.656;2023-03-15T11:07:58;12.67;;;5.27;;
5493;SDS011;2769;49.864;8.656;2023-03-15T11:10:28;7.80;;;4.93;;
5493;SDS011;2769;49.864;8.656;2023-03-15T11:13:12;8.77;;;5.60;;
5493;SDS011;2769;49.864;8.656;2023-03-15T11:15:47;8.47;;;5.40;;
5493;SDS011;2769;49.864;8.656;2023-03-15T11:18:23;5.33;;;4.93;;
5493;SDS011;2769;49.864;8.656;2023-03-15T11:20:54;7.60;;;5.33;;
5493;SDS011;2769;49.864;8.656;2023-03-15T11:23:23;8.70;;;5.77;;
5493;SDS011;2769;49.864;8.656;2023-03-15T11:25:53;6.63;;;5.37;;
5493;SDS011;2769;49.864;8.656;2023-03-15T11:28:23;5.60;;;4.57;;
5493;SDS011;2769;49.864;8.656;2023-03-15T11:30:53;8.77;;;5.07;;
5493;SDS011;2769;49.864;8.656;2023-03-15T11:33:28;9.70;;;5.47;;
5493;SDS011;2769;49.864;8.656;2023-03-15T11:36:00;8.03;;;5.40;;
5493;SDS011;2769;49.864;8.656;2023-03-15T11:38:30;7.47;;;5.30;;
5493;SDS011;2769;49.864;8.656;2023-03-15T11:41:01;8.33;;;5.50;;
5493;SDS011;2769;49.864;8.656;2023-03-15T11:43:37;8.03;;;5.67;;
5493;SDS011;2769;49.864;8.656;2023-03-15T11:46:16;9.23;;;6.07;;
5493;SDS011;2769;49.864;8.656;2023-03-15T11:48:52;7.60;;;5.80;;
5493;SDS011;2769;49.864;8.656;2023-03-15T11:51:23;9.70;;;6.40;;
5493;SDS011;2769;49.864;8.656;2023-03-15T11:53:53;8.20;;;5.40;;
5493;SDS011;2769;49.864;8.656;2023-03-15T11:56:43;9.60;;;5.60;;
5493;SDS011;2769;49.864;8.656;2023-03-15T11:59:15;5.53;;;4.93;;
5493;SDS011;2769;49.864;8.656;2023-03-15T12:01:45;6.60;;;5.50;;
5493;SDS011;2769;49.864;8.656;2023-03-15T12:07:24;6.43;;;5.10;;
5493;SDS011;2769;49.864;8.656;2023-03-15T12:09:56;6.90;;;4.93;;
5493;SDS011;2769;49.864;8.656;2023-03-15T12:12:34;7.10;;;4.77;;
5493;SDS011;2769;49.864;8.656;2023-03-15T12:15:13;6.80;;;4.73;;
5493;SDS011;2769;49.864;8.656;2023-03-15T12:18:11;4.27;;;3.97;;
5493;SDS011;2769;49.864;8.656;2023-03-15T12:20:41;4.03;;;3.73;;
5493;SDS011;2769;49.864;8.656;2023-03-15T12:23:20;4.97;;;4.47;;
5493;SDS011;2769;49.864;8.656;2023-03-15T12:25:56;4.63;;;4.33;;
5493;SDS011;2769;49.864;8.656;2023-03-15T12:28:26;5.37;;;4.30;;
5493;SDS011;2769;49.864;8.656;2023-03-15T12:30:59;5.27;;;4.77;;
5493;SDS011;2769;49.864;8.656;2023-03-15T12:33:29;6.63;;;5.37;;
5493;SDS011;2769;49.864;8.656;2023-03-15T12:35:58;10.13;;;5.40;;
5493;SDS011;2769;49.864;8.656;2023-03-15T12:38:30;8.80;;;5.83;;
5493;SDS011;2769;49.864;8.656;2023-03-15T12:41:05;8.17;;;6.67;;
5493;SDS011;2769;49.864;8.656;2023-03-15T12:43:35;8.17;;;6.10;;
5493;SDS011;2769;49.864;8.656;2023-03-15T12:46:06;7.67;;;6.30;;
5493;SDS011;2769;49.864;8.656;2023-03-15T12:48:34;8.00;;;6.50;;
5493;SDS011;2769;49.864;8.656;2023-03-15T12:51:03;6.23;;;5.50;;
5493;SDS011;2769;49.864;8.656;2023-03-15T12:53:35;9.03;;;7.43;;
5493;SDS011;2769;49.864;8.656;2023-03-15T12:56:16;8.00;;;5.70;;
5493;SDS011;2769;49.864;8.656;2023-03-15T12:58:52;7.17;;;4.10;;
5493;SDS011;2769;49.864;8.656;2023-03-15T13:01:24;4.63;;;4.23;;
5493;SDS011;2769;49.864;8.656;2023-03-15T13:03:53;4.20;;;3.90;;
5493;SDS011;2769;49.864;8.656;2023-03-15T13:06:26;3.67;;;3.23;;
5493;SDS011;2769;49.864;8.656;2023-03-15T13:09:02;3.00;;;2.80;;
5493;SDS011;2769;49.864;8.656;2023-03-15T13:11:38;2.70;;;2.50;;
5493;SDS011;2769;49.864;8.656;2023-03-15T13:14:17;2.93;;;2.60;;
5493;SDS011;2769;49.864;8.656;2023-03-15T13:16:56;3.13;;;2.90;;
5493;SDS011;2769;49.864;8.656;2023-03-15T13:19:29;4.20;;;2.93;;
5493;SDS011;2769;49.864;8.656;2023-03-15T13:22:00;3.40;;;3.20;;
5493;SDS011;2769;49.864;8.656;2023-03-15T13:24:35;3.07;;;2.90;;
5493;SDS011;2769;49.864;8.656;2023-03-15T13:27:10;3.90;;;3.60;;
5493;SDS011;2769;49.864;8.656;2023-03-15T13:29:40;4.13;;;3.70;;
5493;SDS011;2769;49.864;8.656;2023-03-15T13:32:12;3.67;;;3.37;;
5493;SDS011;2769;49.864;8.656;2023-03-15T13:34:43;3.87;;;3.37;;
5493;SDS011;2769;49.864;8.656;2023-03-15T13:37:13;6.87;;;3.60;;
5493;SDS011;2769;49.864;8.656;2023-03-15T13:39:53;4.13;;;3.20;;
5493;SDS011;2769;49.864;8.656;2023-03-15T13:42:22;4.03;;;3.63;;
5493;SDS011;2769;49.864;8.656;2023-03-15T13:45:02;3.37;;;3.17;;
5493;SDS011;2769;49.864;8.656;2023-03-15T13:47:40;3.10;;;2.90;;
5493;SDS011;2769;49.864;8.656;2023-03-15T13:50:11;3.03;;;2.73;;
5493;SDS011;2769;49.864;8.656;2023-03-15T13:52:41;2.87;;;2.63;;
5493;SDS011;2769;49.864;8.656;2023-03-15T13:55:11;2.37;;;2.27;;
5493;SDS011;2769;49.864;8.656;2023-03-15T13:57:40;2.23;;;2.13;;
5493;SDS011;2769;49.864;8.656;2023-03-15T14:00:09;2.03;;;1.93;;
5493;SDS011;2769;49.864;8.656;2023-03-15T14:02:44;2.53;;;2.40;;
5493;SDS011;2769;49.864;8.656;2023-03-15T14:05:14;3.00;;;2.80;;
5493;SDS011;2769;49.864;8.656;2023-03-15T14:07:44;2.67;;;2.47;;
5493;SDS011;2769;49.864;8.656;2023-03-15T14:10:21;3.10;;;2.90;;
5493;SDS011;2769;49.864;8.656;2023-03-15T14:12:54;3.30;;;3.10;;
5493;SDS011;2769;49.864;8.656;2023-03-15T14:15:24;3.27;;;3.07;;
5493;SDS011;2769;49.864;8.656;2023-03-15T14:17:56;3.37;;;3.07;;
5493;SDS011;2769;49.864;8.656;2023-03-15T14:20:27;3.10;;;2.83;;
5493;SDS011;2769;49.864;8.656;2023-03-15T14:22:59;2.53;;;2.33;;
5493;SDS011;2769;49.864;8.656;2023-03-15T14:25:28;2.80;;;2.60;;
5493;SDS011;2769;49.864;8.656;2023-03-15T14:28:01;2.90;;;2.60;;
5493;SDS011;2769;49.864;8.656;2023-03-15T14:30:30;2.43;;;2.33;;
5493;SDS011;2769;49.864;8.656;2023-03-15T14:33:02;2.63;;;2.43;;
5493;SDS011;2769;49.864;8.656;2023-03-15T14:35:39;2.50;;;2.40;;
5493;SDS011;2769;49.864;8.656;2023-03-15T14:38:13;4.63;;;2.83;;
5493;SDS011;2769;49.864;8.656;2023-03-15T14:40:42;3.50;;;3.30;;
5493;SDS011;2769;49.864;8.656;2023-03-15T14:43:10;2.50;;;2.40;;
5493;SDS011;2769;49.864;8.656;2023-03-15T14:45:39;2.97;;;2.57;;
5493;SDS011;2769;49.864;8.656;2023-03-15T14:48:11;2.33;;;2.23;;
5493;SDS011;2769;49.864;8.656;2023-03-15T14:50:41;5.90;;;3.00;;
5493;SDS011;2769;49.864;8.656;2023-03-15T14:53:12;6.57;;;3.17;;
5493;SDS011;2769;49.864;8.656;2023-03-15T14:55:42;3.30;;;3.00;;
5493;SDS011;2769;49.864;8.656;2023-03-15T14:58:11;8.60;;;3.40;;
5493;SDS011;2769;49.864;8.656;2023-03-15T15:00:40;8.43;;;3.00;;
5493;SDS011;2769;49.864;8.656;2023-03-15T15:03:12;2.47;;;2.27;;
5493;SDS011;2769;49.864;8.656;2023-03-15T15:05:43;4.27;;;3.67;;
5493;SDS011;2769;49.864;8.656;2023-03-15T15:08:12;4.00;;;3.50;;
5493;SDS011;2769;49.864;8.656;2023-03-15T15:10:41;3.83;;;3.20;;
5493;SDS011;2769;49.864;8.656;2023-03-15T15:13:12;3.07;;;2.87;;
5493;SDS011;2769;49.864;8.656;2023-03-15T15:15:42;6.67;;;3.33;;
5493;SDS011;2769;49.864;8.656;2023-03-15T15:18:23;3.53;;;2.70;;
5493;SDS011;2769;49.864;8.656;2023-03-15T15:20:52;2.37;;;2.27;;
5493;SDS011;2769;49.864;8.656;2023-03-15T15:23:22;4.50;;;2.77;;
5493;SDS011;2769;49.864;8.656;2023-03-15T15:25:52;2.47;;;2.27;;
5493;SDS011;2769;49.864;8.656;2023-03-15T15:28:22;2.50;;;2.30;;
5493;SDS011;2769;49.864;8.656;2023-03-15T15:31:01;4.30;;;2.33;;
5493;SDS011;2769;49.864;8.656;2023-03-15T15:33:30;2.20;;;2.07;;
5493;SDS011;2769;49.864;8.656;2023-03-15T15:35:59;2.30;;;2.10;;
5493;SDS011;2769;49.864;8.656;2023-03-15T15:38:28;2.17;;;1.97;;
5493;SDS011;2769;49.864;8.656;2023-03-15T15:41:00;2.50;;;2.30;;
5493;SDS011;2769;49.864;8.656;2023-03-15T15:43:28;2.80;;;2.43;;
5493;SDS011;2769;49.864;8.656;2023-03-15T15:46:00;2.27;;;2.17;;
5493;SDS011;2769;49.864;8.656;2023-03-15T15:48:28;2.03;;;1.93;;
5493;SDS011;2769;49.864;8.656;2023-03-15T15:50:57;2.20;;;1.60;;